Temp: 18.3°C   Baro: 1015.8mb
  Wind: 0.9mph   Dir: SW (231°)
  Rain: 0.6mm (0.0mm/hr)
  Solar: 615W/m2  Hum: 64%
 
Bath Spa Weather Station Historical Data
Daily Summary for August 04, 2020 Units:  English    Metric   Both
Daily Weekly Monthly Yearly Custom
  High: Low: Average:
Temperature: 68.5 °F 46.9 °F 58.4 °F
Dew Point: 57.6 °F 43.2 °F 51 °F
Humidity: 88% 65.4% 77%
Wind Speed: 10.4mph 0mph 3.5mph
Wind Gust: 18mph - -
Wind- - SW
Pressure: 30.07 in 29.90 in -
Precipitation: 0.00 in    
Historical Graphs
 
 
Tabular Data for August 04, 2020
Time Temperature Dew Point Pressure Wind Wind Speed Wind Gust Humidity Rainfall Rate (Hourly) solar
00:04 53.4 °F 45.8 °F 30.07 in Calm     75.2% 0.00 in 0 W/m2
00:09 53.4 °F 46 °F 30.07 in Calm     76% 0.00 in 0 W/m2
00:14 53.2 °F 45.9 °F 30.07 in Calm     76% 0.00 in 0 W/m2
00:19 53.2 °F 45.8 °F 30.07 in Calm     76% 0.00 in 0 W/m2
00:24 53 °F 45.6 °F 30.07 in Calm     76% 0.00 in 0 W/m2
00:29 52.9 °F 45.5 °F 30.07 in Calm     76% 0.00 in 0 W/m2
00:34 52.6 °F 45.2 °F 30.07 in Calm     76% 0.00 in 0 W/m2
00:39 52.5 °F 45.1 °F 30.07 in Calm     76% 0.00 in 0 W/m2
00:44 52.3 °F 44.9 °F 30.07 in Calm     76% 0.00 in 0 W/m2
00:49 52 °F 44.6 °F 30.07 in Calm     76% 0.00 in 0 W/m2
00:54 51.5 °F 44.1 °F 30.07 in Calm     76% 0.00 in 0 W/m2
00:59 51.2 °F 44.1 °F 30.07 in Calm     77% 0.00 in 0 W/m2
01:04 50.9 °F 44.1 °F 30.07 in Calm     77.6% 0.00 in 0 W/m2
01:09 50.9 °F 44.2 °F 30.07 in Calm     78% 0.00 in 0 W/m2
01:14 50.8 °F 44.4 °F 30.07 in Calm     78.8% 0.00 in 0 W/m2
01:19 50.8 °F 44.5 °F 30.07 in Calm     79% 0.00 in 0 W/m2
01:24 50.8 °F 44.5 °F 30.07 in Calm     79% 0.00 in 0 W/m2
01:29 50.7 °F 44.4 °F 30.06 in Calm     79% 0.00 in 0 W/m2
01:34 50.7 °F 44.4 °F 30.06 in Calm     79% 0.00 in 0 W/m2
01:39 50.5 °F 44.5 °F 30.06 in Calm     79.8% 0.00 in 0 W/m2
01:44 50.4 °F 44.4 °F 30.06 in Calm     80% 0.00 in 0 W/m2
01:49 50.2 °F 44.2 °F 30.06 in Calm     80% 0.00 in 0 W/m2
01:54 50.2 °F 44.2 °F 30.06 in Calm     80% 0.00 in 0 W/m2
01:59 49.8 °F 44.1 °F 30.06 in Calm     80.4% 0.00 in 0 W/m2
02:04 49.8 °F 44.2 °F 30.06 in Calm     81% 0.00 in 0 W/m2
02:09 49.6 °F 44.1 °F 30.06 in Calm     81% 0.00 in 0 W/m2
02:14 49.5 °F 44 °F 30.06 in Calm     81.4% 0.00 in 0 W/m2
02:19 49.3 °F 44.1 °F 30.06 in Calm     82% 0.00 in 0 W/m2
02:24 49.3 °F 44.1 °F 30.06 in Calm     82% 0.00 in 0 W/m2
02:29 49.3 °F 44.1 °F 30.06 in Calm     82% 0.00 in 0 W/m2
02:34 49 °F 44 °F 30.06 in Calm     82.4% 0.00 in 0 W/m2
02:39 48.8 °F 44 °F 30.06 in Calm     83% 0.00 in 0 W/m2
02:44 48.7 °F 43.8 °F 30.06 in Calm     83% 0.00 in 0 W/m2
02:49 48.5 °F 43.6 °F 30.05 in Calm     83% 0.00 in 0 W/m2
02:54 48.3 °F 43.5 °F 30.05 in Calm     83.4% 0.00 in 0 W/m2
02:59 48.2 °F 43.5 °F 30.05 in Calm     84% 0.00 in 0 W/m2
03:04 48.1 °F 43.4 °F 30.05 in Calm     84% 0.00 in 0 W/m2
03:09 48 °F 43.3 °F 30.05 in Calm     84% 0.00 in 0 W/m2
03:14 48 °F 43.3 °F 30.05 in Calm     84% 0.00 in 0 W/m2
03:19 48 °F 43.3 °F 30.05 in Calm     84% 0.00 in 0 W/m2
03:24 48 °F 43.3 °F 30.05 in Calm     84% 0.00 in 0 W/m2
03:34 48 °F 43.7 °F 30.05 in Calm     85% 0.00 in 0 W/m2
03:39 48.1 °F 43.8 °F 30.05 in Calm     85% 0.00 in 0 W/m2
03:44 48.2 °F 43.9 °F 30.05 in Calm     85% 0.00 in 0 W/m2
03:49 48.1 °F 43.8 °F 30.05 in Calm     85% 0.00 in 0 W/m2
03:54 48.2 °F 43.9 °F 30.05 in Calm     85% 0.00 in 0 W/m2
03:59 48.4 °F 44.1 °F 30.05 in Calm     85% 0.00 in 0 W/m2
04:04 48.4 °F 44.1 °F 30.05 in Calm     85% 0.00 in 0 W/m2
04:09 48.6 °F 44.2 °F 30.05 in Calm     85% 0.00 in 0 W/m2
04:14 48.6 °F 44.2 °F 30.05 in Calm     85% 0.00 in 0 W/m2
04:19 48.4 °F 44.1 °F 30.05 in Calm     85% 0.00 in 0 W/m2
04:24 48.5 °F 44.2 °F 30.05 in Calm     85% 0.00 in 0 W/m2
04:29 48.4 °F 44.1 °F 30.04 in Calm     85% 0.00 in 0 W/m2
04:34 48.6 °F 44.2 °F 30.04 in Calm     85% 0.00 in 0 W/m2
04:39 48.6 °F 44.2 °F 30.04 in Calm     85% 0.00 in 0 W/m2
04:44 48.6 °F 44.2 °F 30.04 in Calm     85% 0.00 in 0 W/m2
04:49 48.6 °F 44.2 °F 30.04 in Calm     85% 0.00 in 0 W/m2
04:54 48.4 °F 44.1 °F 30.04 in Calm     85% 0.00 in 0 W/m2
04:59 48.2 °F 43.9 °F 30.04 in Calm     85% 0.00 in 0 W/m2
05:04 48 °F 43.7 °F 30.04 in Calm     85% 0.00 in 0 W/m2
05:09 47.9 °F 43.6 °F 30.04 in Calm     85% 0.00 in 0 W/m2
05:14 48 °F 43.7 °F 30.04 in Calm     85% 0.00 in 0 W/m2
05:19 47.9 °F 43.9 °F 30.04 in Calm     85.6% 0.00 in 0 W/m2
05:24 47.8 °F 43.9 °F 30.04 in Calm     86% 0.00 in 0 W/m2
05:29 47.7 °F 43.7 °F 30.04 in Calm     86% 0.00 in 0 W/m2
05:34 47.7 °F 43.7 °F 30.04 in Calm     86% 0.00 in 0 W/m2
05:39 47.7 °F 43.7 °F 30.04 in Calm     86% 0.00 in 0 W/m2
05:44 47.6 °F 43.6 °F 30.04 in Calm     86% 0.00 in 5 W/m2
05:49 47.5 °F 43.5 °F 30.04 in Calm     86% 0.00 in 5 W/m2
05:54 47.4 °F 43.4 °F 30.03 in Calm     86% 0.00 in 7 W/m2
05:59 47.3 °F 43.4 °F 30.04 in Calm     86.2% 0.00 in 7 W/m2
06:04 47.2 °F 43.6 °F 30.03 in Calm     87% 0.00 in 9 W/m2
06:09 47.1 °F 43.2 °F 30.03 in Calm     86.2% 0.00 in 11 W/m2
06:14 47.1 °F 43.5 °F 30.04 in Calm     87% 0.00 in 12 W/m2
06:19 47.1 °F 43.5 °F 30.04 in Calm     87% 0.00 in 14 W/m2
06:24 47 °F 43.4 °F 30.04 in Calm     87% 0.00 in 16 W/m2
06:29 46.9 °F 43.3 °F 30.04 in Calm     87% 0.00 in 18 W/m2
06:34 46.9 °F 43.3 °F 30.04 in Calm     87% 0.00 in 21 W/m2
06:39 47 °F 43.4 °F 30.04 in Calm     87% 0.00 in 23 W/m2
06:44 47.3 °F 43.7 °F 30.04 in Calm     87.3% 0.00 in 25 W/m2
06:49 47.5 °F 44.1 °F 30.04 in Calm     88% 0.00 in 28 W/m2
06:54 47.7 °F 44.3 °F 30.04 in Calm     88% 0.00 in 33 W/m2
06:59 48 °F 44.6 °F 30.04 in Calm     88% 0.00 in 40 W/m2
07:04 48.4 °F 45 °F 30.04 in Calm     88% 0.00 in 58 W/m2
07:09 48.7 °F 45.2 °F 30.04 in Calm     88% 0.00 in 79 W/m2
07:14 49.1 °F 45.7 °F 30.04 in Calm     88% 0.00 in 81 W/m2
07:19 49.5 °F 46.1 °F 30.03 in Calm     88% 0.00 in 105 W/m2
07:24 50 °F 46.6 °F 30.03 in Calm     88% 0.00 in 134 W/m2
07:29 50.4 °F 47 °F 30.03 in Calm     88% 0.00 in 141 W/m2
07:34 50.8 °F 47.1 °F 30.03 in Calm     87.4% 0.00 in 174 W/m2
07:39 51.3 °F 47.5 °F 30.03 in Calm     87% 0.00 in 181 W/m2
07:44 51.8 °F 48 °F 30.03 in Calm     87% 0.00 in 227 W/m2
07:49 52.3 °F 48.2 °F 30.03 in Calm     86.2% 0.00 in 144 W/m2
07:54 52.9 °F 48.8 °F 30.03 in Calm     86% 0.00 in 118 W/m2
07:59 53.2 °F 48.9 °F 30.03 in Calm     85.3% 0.00 in 116 W/m2
08:04 53.6 °F 48.9 °F 30.03 in Calm     84.2% 0.00 in 100 W/m2
08:09 53.9 °F 48.7 °F 30.03 in Calm     82.8% 0.00 in 234 W/m2
08:14 54.4 °F 48.8 °F 30.03 in Calm     81.6% 0.00 in 330 W/m2
08:19 55.6 °F 49.4 °F 30.03 in Calm     79.8% 0.00 in 283 W/m2
08:24 56.4 °F 49.4 °F 30.04 in Calm     77.6% 0.00 in 220 W/m2
08:29 56.7 °F 49 °F 30.04 in Calm     75.8% 0.00 in 213 W/m2
08:34 56.7 °F 48.7 °F 30.04 in Calm     74.8% 0.00 in 192 W/m2
08:39 56.7 °F 48.5 °F 30.04 in Calm     74% 0.00 in 193 W/m2
08:44 56.8 °F 48.5 °F 30.04 in Calm     73.6% 0.00 in 195 W/m2
08:49 57.1 °F 48.5 °F 30.04 in Calm     73% 0.00 in 172 W/m2
08:54 57.4 °F 48.6 °F 30.03 in Calm     72.6% 0.00 in 186 W/m2
08:59 57.6 °F 48.5 °F 30.03 in Calm     71.8% 0.00 in 246 W/m2
09:04 57.7 °F 48.4 °F 30.03 in Calm     71% 0.00 in 253 W/m2
09:09 58.1 °F 48.8 °F 30.03 in WNW 0.6 mph 3 mph 71% 0.00 in 285 W/m2
09:14 58.6 °F 49.3 °F 30.03 in WNW 1.2 mph 4 mph 71% 0.00 in 401 W/m2
09:19 59.2 °F 49.8 °F 30.03 in WNW 0.6 mph 3 mph 70.8% 0.00 in 274 W/m2
09:24 59.5 °F 50.2 °F 30.03 in WNW 1.2 mph 3 mph 71% 0.00 in 160 W/m2
09:29 59.7 °F 50.3 °F 30.04 in WSW 1.5 mph 5 mph 71% 0.00 in 185 W/m2
09:34 59.7 °F 50.4 °F 30.04 in WSW 2.8 mph 7 mph 71% 0.00 in 223 W/m2
09:39 60 °F 50.6 °F 30.04 in SW 2.5 mph 5 mph 71% 0.00 in 221 W/m2
09:44 60.1 °F 50.6 °F 30.03 in SW 4 mph 7 mph 70.8% 0.00 in 211 W/m2
09:49 60.1 °F 50 °F 30.03 in SW 3 mph 7 mph 69.6% 0.00 in 281 W/m2
09:54 60.4 °F 50 °F 30.03 in WSW 2.9 mph 8 mph 68.6% 0.00 in 302 W/m2
09:59 60.6 °F 49.9 °F 30.03 in SW 3.3 mph 7 mph 67.8% 0.00 in 281 W/m2
10:04 60.6 °F 49.5 °F 30.03 in WSW 2.5 mph 7 mph 66.8% 0.00 in 232 W/m2
10:09 60.4 °F 49.3 °F 30.03 in WSW 3.3 mph 8 mph 66.4% 0.00 in 220 W/m2
10:14 60.6 °F 49.7 °F 30.03 in WSW 3.3 mph 6 mph 67.2% 0.00 in 188 W/m2
10:19 60.5 °F 50.3 °F 30.04 in WSW 6 mph 10 mph 69% 0.00 in 186 W/m2
10:24 60.4 °F 50.5 °F 30.04 in West 6.7 mph 10 mph 70% 0.00 in 176 W/m2
10:29 60.3 °F 50.3 °F 30.04 in West 4.7 mph 9 mph 70% 0.00 in 211 W/m2
10:34 60.2 °F 50.2 °F 30.04 in West 3.2 mph 8 mph 69.8% 0.00 in 218 W/m2
10:39 60.3 °F 50.4 °F 30.04 in West 4.4 mph 9 mph 70% 0.00 in 188 W/m2
10:44 60.3 °F 50.4 °F 30.04 in WSW 4.5 mph 10 mph 70% 0.00 in 188 W/m2
10:49 60.2 °F 50.3 °F 30.04 in West 4.8 mph 11 mph 70% 0.00 in 207 W/m2
10:54 60.1 °F 50.2 °F 30.03 in WSW 5.1 mph 10 mph 70% 0.00 in 225 W/m2
10:59 60.3 °F 50.4 °F 30.04 in SW 4.4 mph 8 mph 70% 0.00 in 230 W/m2
11:04 60.1 °F 50.2 °F 30.04 in WSW 5.5 mph 8 mph 70% 0.00 in 244 W/m2
11:09 60.2 °F 50.3 °F 30.03 in SSW 3.2 mph 10 mph 70% 0.00 in 292 W/m2
11:14 60.1 °F 50.2 °F 30.03 in SW 6.7 mph 10 mph 70% 0.00 in 294 W/m2
11:19 60.1 °F 50.2 °F 30.03 in WSW 5.7 mph 12 mph 70% 0.00 in 241 W/m2
11:24 60.2 °F 50.3 °F 30.03 in WSW 5.6 mph 8 mph 70% 0.00 in 267 W/m2
11:29 60.4 °F 50.5 °F 30.03 in WSW 3.4 mph 11 mph 70% 0.00 in 381 W/m2
11:34 60.3 °F 50.4 °F 30.02 in WSW 8.2 mph 12 mph 70% 0.00 in 392 W/m2
11:39 60.4 °F 50.5 °F 30.02 in SW 4.9 mph 9 mph 70% 0.00 in 260 W/m2
11:44 60.8 °F 50.9 °F 30.02 in SW 3.7 mph 8 mph 70% 0.00 in 313 W/m2
11:49 61 °F 51.1 °F 30.02 in WSW 4.8 mph 8 mph 70% 0.00 in 345 W/m2
11:54 61.2 °F 51.1 °F 30.02 in SSW 6.1 mph 12 mph 69.4% 0.00 in 383 W/m2
11:59 61.3 °F 51.2 °F 30.03 in WSW 7 mph 13 mph 69.3% 0.00 in 248 W/m2
12:04 61.2 °F 50.9 °F 30.03 in SW 6 mph 11 mph 69% 0.00 in 248 W/m2
12:09 61.2 °F 51.2 °F 30.03 in West 5.6 mph 11 mph 69.6% 0.00 in 244 W/m2
12:14 61.3 °F 51.4 °F 30.02 in SW 4.4 mph 9 mph 70% 0.00 in 287 W/m2
12:19 61.8 °F 51.8 °F 30.02 in SW 1.7 mph 9 mph 69.6% 0.00 in 308 W/m2
12:24 62 °F 51.8 °F 30.02 in West 6.8 mph 11 mph 69% 0.00 in 295 W/m2
12:29 61.9 °F 51.8 °F 30.02 in WSW 5.7 mph 9 mph 69.4% 0.00 in 216 W/m2
12:34 61.9 °F 51.9 °F 30.02 in WSW 5.1 mph 10 mph 69.8% 0.00 in 148 W/m2
12:39 61.9 °F 52 °F 30.02 in SW 4.6 mph 9 mph 70% 0.00 in 139 W/m2
12:44 61.9 °F 52.1 °F 30.02 in WSW 2.8 mph 8 mph 70.2% 0.00 in 137 W/m2
12:49 62 °F 51.9 °F 30.02 in SW 4.8 mph 10 mph 69.4% 0.00 in 179 W/m2
12:54 62 °F 51.7 °F 30.02 in SW 4.6 mph 10 mph 69% 0.00 in 281 W/m2
12:59 62.1 °F 51.7 °F 30.02 in WSW 6.8 mph 11 mph 68.6% 0.00 in 301 W/m2
13:04 62.1 °F 51.3 °F 30.02 in SW 6.6 mph 11 mph 67.8% 0.00 in 318 W/m2
13:09 62.4 °F 51.3 °F 30.01 in SW 4.5 mph 9 mph 67.2% 0.00 in 338 W/m2
13:14 62.8 °F 51.6 °F 30.01 in SW 5.1 mph 11 mph 67% 0.00 in 367 W/m2
13:19 62.7 °F 51.2 °F 30.01 in SW 6.9 mph 14 mph 66.2% 0.00 in 348 W/m2
13:24 62.8 °F 51.6 °F 30.01 in SW 9.9 mph 12 mph 67% 0.00 in 309 W/m2
13:29 62.9 °F 51.7 °F 30.01 in SW 6.3 mph 11 mph 67% 0.00 in 388 W/m2
13:34 63 °F 52.2 °F 30.01 in WSW 7.5 mph 17 mph 68% 0.00 in 394 W/m2
13:39 63.1 °F 52.3 °F 30.01 in WSW 5.6 mph 10 mph 68% 0.00 in 373 W/m2
13:44 63.2 °F 52.4 °F 30.01 in WSW 7.7 mph 12 mph 68% 0.00 in 373 W/m2
13:49 63.6 °F 52.8 °F 30.01 in WSW 4.5 mph 10 mph 68% 0.00 in 387 W/m2
13:54 63.9 °F 53 °F 30.01 in WSW 5.6 mph 10 mph 67.8% 0.00 in 352 W/m2
13:59 63.8 °F 52.9 °F 30.00 in WSW 4.2 mph 10 mph 67.8% 0.00 in 425 W/m2
14:04 63.9 °F 53.1 °F 30.00 in SW 6 mph 9 mph 68% 0.00 in 475 W/m2
14:09 64.2 °F 53.4 °F 29.99 in South 5.8 mph 16 mph 68% 0.00 in 457 W/m2
14:14 64.6 °F 54 °F 29.99 in SSW 4.3 mph 16 mph 68.8% 0.00 in 476 W/m2
14:19 64.8 °F 54 °F 29.98 in SW 5.5 mph 14 mph 68% 0.00 in 524 W/m2
14:24 65 °F 54.3 °F 29.98 in SW 4 mph 8 mph 68.2% 0.00 in 603 W/m2
14:29 65.7 °F 54.4 °F 29.98 in SSW 6.2 mph 12 mph 66.8% 0.00 in 775 W/m2
14:34 66.2 °F 54.2 °F 29.98 in WSW 8.4 mph 12 mph 65.4% 0.00 in 879 W/m2
14:39 66.4 °F 54.7 °F 29.98 in WSW 8.6 mph 14 mph 66.2% 0.00 in 814 W/m2
14:44 66 °F 54.9 °F 29.98 in SW 6.6 mph 13 mph 67.4% 0.00 in 621 W/m2
14:49 66 °F 55.5 °F 29.98 in SW 6.4 mph 12 mph 68.8% 0.00 in 640 W/m2
14:54 66.8 °F 56.3 °F 29.98 in SSW 6.8 mph 13 mph 68.8% 0.00 in 835 W/m2
14:59 67 °F 56.6 °F 29.97 in SSW 5.9 mph 13 mph 69% 0.00 in 868 W/m2
15:04 68.2 °F 57.3 °F 29.97 in SSW 4.5 mph 12 mph 68.3% 0.00 in 905 W/m2
15:09 68.3 °F 56.9 °F 29.97 in SW 5.8 mph 13 mph 67% 0.00 in 905 W/m2
15:14 68.1 °F 57.1 °F 29.97 in SSW 5.1 mph 13 mph 67.8% 0.00 in 831 W/m2
15:19 68.5 °F 57 °F 29.97 in SW 8.2 mph 14 mph 66.6% 0.00 in 798 W/m2
15:24 67.4 °F 56.4 °F 29.97 in SW 8.3 mph 15 mph 67.8% 0.00 in 715 W/m2
15:29 67.1 °F 56.4 °F 29.96 in SW 10 mph 15 mph 68.6% 0.00 in 271 W/m2
15:34 66.9 °F 56.5 °F 29.96 in SSW 5.5 mph 14 mph 69% 0.00 in 316 W/m2
15:39 66.7 °F 56.4 °F 29.96 in SW 7.1 mph 18 mph 69.2% 0.00 in 360 W/m2
15:44 66.8 °F 56.5 °F 29.96 in WSW 10.4 mph 18 mph 69.4% 0.00 in 499 W/m2
15:49 67.2 °F 56.8 °F 29.96 in SW 5.7 mph 12 mph 69.3% 0.00 in 446 W/m2
15:54 67.3 °F 56.8 °F 29.96 in WSW 6.7 mph 10 mph 69% 0.00 in 308 W/m2
15:59 67.2 °F 57 °F 29.96 in WSW 8.2 mph 12 mph 69.8% 0.00 in 315 W/m2
16:04 67.1 °F 57 °F 29.96 in WSW 7 mph 13 mph 70% 0.00 in 251 W/m2
16:09 67.1 °F 57 °F 29.96 in WSW 6.8 mph 12 mph 70% 0.00 in 209 W/m2
16:14 67.3 °F 56.9 °F 29.96 in SSW 7 mph 12 mph 69.2% 0.00 in 221 W/m2
16:19 66.9 °F 56.6 °F 29.95 in SW 6.4 mph 12 mph 69.2% 0.00 in 216 W/m2
16:24 66.9 °F 56.7 °F 29.95 in SW 6.2 mph 14 mph 69.6% 0.00 in 202 W/m2
16:29 67 °F 56.7 °F 29.95 in SW 7.4 mph 14 mph 69.4% 0.00 in 195 W/m2
16:34 66.8 °F 56.7 °F 29.95 in WSW 6.4 mph 12 mph 69.8% 0.00 in 220 W/m2
16:39 66.9 °F 56.9 °F 29.95 in West 6 mph 12 mph 70.2% 0.00 in 204 W/m2
16:44 67.3 °F 57.6 °F 29.95 in SW 6.3 mph 11 mph 71% 0.00 in 265 W/m2
16:49 67.3 °F 57.6 °F 29.95 in SW 6 mph 15 mph 71% 0.00 in 357 W/m2
16:54 67.2 °F 57.5 °F 29.95 in WSW 7.6 mph 14 mph 71% 0.00 in 315 W/m2
16:59 67.3 °F 57.6 °F 29.95 in WSW 6.4 mph 14 mph 71% 0.00 in 206 W/m2
17:04 67.2 °F 57.5 °F 29.95 in SW 7 mph 14 mph 71% 0.00 in 171 W/m2
17:09 67.1 °F 57.4 °F 29.94 in SSW 5.9 mph 13 mph 71% 0.00 in 176 W/m2
17:14 66.9 °F 57.2 °F 29.94 in SW 6.7 mph 13 mph 71% 0.00 in 148 W/m2
17:19 66.7 °F 57.3 °F 29.94 in SSW 7.4 mph 15 mph 71.8% 0.00 in 118 W/m2
17:24 66.5 °F 57.3 °F 29.94 in SW 7.2 mph 18 mph 72.6% 0.00 in 134 W/m2
17:29 66.6 °F 57.3 °F 29.94 in WSW 6.8 mph 14 mph 72.2% 0.00 in 141 W/m2
17:34 66.5 °F 57.5 °F 29.94 in SW 5.4 mph 14 mph 73% 0.00 in 130 W/m2
17:39 66.4 °F 57.4 °F 29.94 in SSW 7.6 mph 12 mph 73% 0.00 in 141 W/m2
17:44 66.3 °F 57.3 °F 29.93 in SW 8.2 mph 13 mph 73% 0.00 in 162 W/m2
17:49 66 °F 57.2 °F 29.93 in SSW 8.8 mph 13 mph 73% 0.00 in 130 W/m2
17:54 66 °F 57.2 °F 29.93 in SW 8.4 mph 15 mph 73% 0.00 in 109 W/m2
17:59 65.9 °F 57.1 °F 29.94 in SW 8 mph 14 mph 73% 0.00 in 125 W/m2
18:04 65.8 °F 57 °F 29.93 in WSW 6.2 mph 12 mph 73% 0.00 in 102 W/m2
18:09 66 °F 57.2 °F 29.93 in WSW 5.5 mph 11 mph 73% 0.00 in 111 W/m2
18:14 65.8 °F 57 °F 29.93 in SSW 7.6 mph 12 mph 73% 0.00 in 111 W/m2
18:19 65.8 °F 57.2 °F 29.93 in SW 5 mph 9 mph 73.4% 0.00 in 123 W/m2
18:24 65.7 °F 57.1 °F 29.93 in SSW 7.2 mph 15 mph 73.6% 0.00 in 125 W/m2
18:29 65.8 °F 57.3 °F 29.93 in SSW 4.5 mph 9 mph 73.8% 0.00 in 151 W/m2
18:34 65.8 °F 57 °F 29.92 in SSW 9.2 mph 12 mph 73% 0.00 in 127 W/m2
18:39 65.8 °F 57.2 °F 29.92 in SSW 5.5 mph 11 mph 73.4% 0.00 in 105 W/m2
18:44 65.8 °F 57.2 °F 29.92 in SSW 4.8 mph 14 mph 73.6% 0.00 in 97 W/m2
18:49 65.7 °F 57.1 °F 29.92 in SSW 7.4 mph 14 mph 73.8% 0.00 in 97 W/m2
18:54 65.5 °F 57 °F 29.92 in SW 5.5 mph 11 mph 74% 0.00 in 53 W/m2
18:59 65.4 °F 56.9 °F 29.92 in SW 5.8 mph 13 mph 74% 0.00 in 69 W/m2
19:04 65 °F 56.6 °F 29.92 in SW 8.2 mph 17 mph 74% 0.00 in 69 W/m2
19:09 64.9 °F 56.8 °F 29.92 in SW 4.3 mph 11 mph 75% 0.00 in 77 W/m2
19:14 64.9 °F 56.8 °F 29.92 in SSW 4.2 mph 13 mph 75% 0.00 in 76 W/m2
19:19 64.8 °F 56.7 °F 29.92 in SSW 4.9 mph 13 mph 75% 0.00 in 67 W/m2
19:24 64.8 °F 56.7 °F 29.92 in SW 7 mph 11 mph 75% 0.00 in 77 W/m2
19:29 64.5 °F 56.4 °F 29.92 in SW 6.1 mph 13 mph 75% 0.00 in 77 W/m2
19:34 64.2 °F 56.4 °F 29.92 in SSW 4.7 mph 13 mph 75.6% 0.00 in 42 W/m2
19:39 64.2 °F 56.5 °F 29.92 in WSW 7 mph 10 mph 76% 0.00 in 39 W/m2
19:44 64 °F 56.3 °F 29.92 in SW 3.9 mph 9 mph 76% 0.00 in 35 W/m2
19:49 64 °F 56.3 °F 29.92 in SSW 6 mph 10 mph 76% 0.00 in 28 W/m2
19:54 63.9 °F 56.1 °F 29.92 in SSW 5.2 mph 10 mph 76% 0.00 in 28 W/m2
19:59 63.9 °F 56.1 °F 29.92 in SSW 3.9 mph 8 mph 76% 0.00 in 21 W/m2
20:04 63.7 °F 56.1 °F 29.92 in SW 5 mph 9 mph 76.4% 0.00 in 16 W/m2
20:09 63.3 °F 56.1 °F 29.92 in SW 4.1 mph 10 mph 77.4% 0.00 in 9 W/m2
20:14 63.1 °F 56.3 °F 29.92 in SSW 3.5 mph 11 mph 78.6% 0.00 in 7 W/m2
20:19 63 °F 56.3 °F 29.92 in SW 6.5 mph 11 mph 79% 0.00 in 7 W/m2
20:24 62.8 °F 56.3 °F 29.92 in SW 6.6 mph 12 mph 79.6% 0.00 in 7 W/m2
20:29 62.7 °F 56.4 °F 29.91 in SSW 4.3 mph 11 mph 80% 0.00 in 5 W/m2
20:34 62.4 °F 56.1 °F 29.91 in SSW 4.9 mph 10 mph 80% 0.00 in 5 W/m2
20:39 62.4 °F 56.1 °F 29.91 in SSW 4.4 mph 11 mph 80% 0.00 in 0 W/m2
20:44 62.4 °F 56.1 °F 29.91 in South 4.5 mph 9 mph 80% 0.00 in 0 W/m2
20:49 62.4 °F 56.1 °F 29.91 in SSW 6 mph 13 mph 80% 0.00 in 0 W/m2
20:54 62.4 °F 56.1 °F 29.91 in SW 6.8 mph 13 mph 80% 0.00 in 0 W/m2
20:59 62.4 °F 56.1 °F 29.91 in WSW 5 mph 14 mph 80% 0.00 in 0 W/m2
21:03 62.4 °F 56.1 °F 29.91 in SW 8 mph 15 mph 80% 0.00 in 0 W/m2
21:09 62.2 °F 55.9 °F 29.91 in SSW 6.5 mph 11 mph 80% 0.00 in 0 W/m2
21:14 62.3 °F 56 °F 29.92 in SW 7.6 mph 10 mph 80% 0.00 in 0 W/m2
21:19 62.2 °F 55.9 °F 29.92 in SW 6.4 mph 12 mph 80% 0.00 in 0 W/m2
21:24 62.2 °F 55.9 °F 29.92 in SW 7.4 mph 10 mph 80% 0.00 in 0 W/m2
21:29 62.2 °F 55.9 °F 29.92 in SW 4.9 mph 11 mph 80% 0.00 in 0 W/m2
21:34 62.2 °F 55.9 °F 29.92 in SW 5.9 mph 13 mph 80% 0.00 in 0 W/m2
21:39 62.2 °F 56.2 °F 29.92 in WSW 4.2 mph 11 mph 80.8% 0.00 in 0 W/m2
21:44 62.2 °F 56.3 °F 29.91 in SW 5.1 mph 13 mph 81% 0.00 in 0 W/m2
21:49 62.1 °F 56.1 °F 29.92 in SW 5.6 mph 13 mph 81% 0.00 in 0 W/m2
21:54 62.1 °F 56.1 °F 29.92 in SW 5.4 mph 10 mph 81% 0.00 in 0 W/m2
21:59 62.1 °F 56.1 °F 29.92 in SSW 4.6 mph 11 mph 81% 0.00 in 0 W/m2
22:04 61.9 °F 56.1 °F 29.92 in SSW 7.4 mph 13 mph 81.4% 0.00 in 0 W/m2
22:09 61.9 °F 56.2 °F 29.92 in SSW 6.6 mph 13 mph 81.8% 0.00 in 0 W/m2
22:14 61.9 °F 56.3 °F 29.92 in SSW 4.5 mph 12 mph 82% 0.00 in 0 W/m2
22:19 61.9 °F 56.3 °F 29.91 in SW 6.5 mph 12 mph 82% 0.00 in 0 W/m2
22:24 61.9 °F 56.3 °F 29.91 in SW 4.8 mph 14 mph 82% 0.00 in 0 W/m2
22:29 61.7 °F 56.1 °F 29.91 in SSW 4.9 mph 9 mph 82% 0.00 in 0 W/m2
22:34 61.7 °F 56.1 °F 29.91 in SW 4 mph 9 mph 82% 0.00 in 0 W/m2
22:39 61.7 °F 56.1 °F 29.92 in WSW 4 mph 9 mph 82% 0.00 in 0 W/m2
22:44 61.7 °F 56.1 °F 29.91 in SW 3 mph 8 mph 82% 0.00 in 0 W/m2
22:49 61.6 °F 56 °F 29.92 in West 2.5 mph 6 mph 82% 0.00 in 0 W/m2
22:54 61.5 °F 56 °F 29.91 in WSW 4.6 mph 8 mph 82.2% 0.00 in 0 W/m2
22:59 61.5 °F 56.3 °F 29.91 in SW 2.8 mph 9 mph 83% 0.00 in 0 W/m2
23:04 61.5 °F 56.3 °F 29.91 in SSW 3.8 mph 9 mph 83% 0.00 in 0 W/m2
23:09 61.5 °F 56.3 °F 29.91 in SW 6.6 mph 11 mph 83% 0.00 in 0 W/m2
23:14 61.5 °F 56.3 °F 29.91 in SW 6 mph 13 mph 83% 0.00 in 0 W/m2
23:19 61.3 °F 56.1 °F 29.91 in SSW 6.6 mph 13 mph 83% 0.00 in 0 W/m2
23:23 61.3 °F 56.1 °F 29.91 in SW 7 mph 11 mph 83% 0.00 in 0 W/m2
23:29 61.3 °F 56.1 °F 29.91 in SW 3.2 mph 11 mph 83% 0.00 in 0 W/m2
23:34 61.3 °F 56.1 °F 29.91 in SW 5.3 mph 9 mph 83% 0.00 in 0 W/m2
23:39 61.4 °F 56.2 °F 29.91 in SSW 5.6 mph 12 mph 83% 0.00 in 0 W/m2
23:44 61.5 °F 56.3 °F 29.90 in SW 6 mph 14 mph 83% 0.00 in 0 W/m2
23:49 61.5 °F 56.3 °F 29.91 in SW 5.9 mph 12 mph 83% 0.00 in 0 W/m2
23:54 61.5 °F 56.3 °F 29.91 in SSW 7.8 mph 14 mph 83% 0.00 in 0 W/m2
23:59 61.5 °F 56.3 °F 29.91 in SSW 5.6 mph 9 mph 83% 0.00 in 0 W/m2
Bath Spa Weather
Compliments of Weather Underground - 2 mb